createdAt,value
2023-01-30T00:02:17.583Z,83.06
2023-01-30T00:07:21.802Z,82.20
2023-01-30T00:12:24.722Z,82.54
2023-01-30T00:17:27.495Z,82.58
2023-01-30T00:22:31.802Z,82.29
2023-01-30T00:27:34.567Z,81.21
2023-01-30T00:32:39.014Z,82.17
2023-01-30T00:37:43.135Z,83.46
2023-01-30T00:43:03.371Z,84.44
2023-01-30T00:48:06.770Z,83.38
2023-01-30T00:53:12.300Z,83.25
2023-01-30T00:58:15.094Z,84.29
2023-01-30T01:03:19.338Z,85.01
2023-01-30T01:08:23.524Z,84.63
2023-01-30T01:13:26.531Z,84.41
2023-01-30T01:18:29.346Z,87.65
2023-01-30T01:23:33.514Z,87.58
2023-01-30T01:28:37.596Z,89.02
2023-01-30T01:33:40.722Z,89.03
2023-01-30T01:38:44.907Z,90.98
2023-01-30T01:44:03.071Z,91.17
2023-01-30T01:49:13.587Z,91.80
2023-01-30T01:54:23.700Z,90.91
2023-01-30T01:59:31.587Z,91.49
2023-01-30T02:04:53.440Z,90.72
2023-01-30T02:09:58.459Z,90.74
2023-01-30T02:15:02.423Z,91.69
2023-01-30T02:20:16.926Z,90.17
2023-01-30T02:25:48.999Z,93.16
2023-01-30T02:31:14.299Z,92.56
2023-01-30T02:36:28.836Z,93.25
2023-01-30T02:41:37.316Z,93.76
2023-01-30T02:46:54.252Z,94.02
2023-01-30T02:52:00.147Z,94.00
2023-01-30T02:57:03.194Z,94.90
2023-01-30T03:02:23.901Z,95.38
2023-01-30T03:07:36.558Z,92.18
2023-01-30T03:12:42.404Z,94.83
2023-01-30T03:17:49.594Z,96.43
2023-01-30T03:22:55.106Z,96.11
2023-01-30T03:27:58.597Z,96.41
2023-01-30T03:33:02.881Z,95.03
2023-01-30T03:38:06.073Z,96.22
2023-01-30T03:43:09.078Z,97.10
2023-01-30T03:48:14.302Z,95.86
2023-01-30T03:53:17.184Z,97.74
2023-01-30T03:58:20.158Z,95.38
2023-01-30T04:03:25.169Z,94.91
2023-01-30T04:08:31.897Z,96.24
2023-01-30T04:13:34.792Z,95.76
2023-01-30T04:18:39.018Z,95.39
2023-01-30T04:23:48.183Z,96.21
2023-01-30T04:28:50.992Z,97.83
2023-01-30T04:33:55.865Z,96.61
2023-01-30T04:38:59.242Z,95.36
2023-01-30T04:44:03.902Z,97.19
2023-01-30T04:49:08.101Z,97.52
2023-01-30T04:54:11.137Z,98.52
2023-01-30T04:59:14.046Z,97.65
2023-01-30T05:04:22.779Z,97.61
2023-01-30T05:09:25.570Z,97.39
2023-01-30T05:14:28.388Z,97.46
2023-01-30T05:19:32.785Z,97.13
2023-01-30T05:24:36.698Z,96.30
2023-01-30T05:29:39.497Z,98.40
2023-01-30T05:34:43.963Z,97.53
2023-01-30T05:39:46.767Z,98.22
2023-01-30T05:44:49.687Z,97.09
2023-01-30T05:49:53.834Z,96.71
2023-01-30T05:54:56.612Z,98.39
2023-01-30T05:59:59.437Z,97.98
2023-01-30T06:05:03.722Z,97.99
2023-01-30T06:10:07.311Z,97.62
2023-01-30T06:15:11.629Z,97.06
2023-01-30T06:20:15.889Z,93.77
2023-01-30T06:25:19.146Z,94.59
2023-01-30T06:30:22.321Z,95.08
2023-01-30T06:35:26.601Z,95.61
2023-01-30T06:40:29.434Z,96.63
2023-01-30T06:45:32.439Z,95.60
2023-01-30T06:50:37.256Z,93.63
2023-01-30T06:55:40.034Z,94.22
2023-01-30T07:00:43.931Z,96.58
2023-01-30T07:05:48.934Z,93.59
2023-01-30T07:10:51.881Z,94.36
2023-01-30T07:15:54.673Z,95.35
2023-01-30T07:20:58.823Z,93.68
2023-01-30T07:26:04.654Z,92.38
2023-01-30T07:31:07.526Z,89.87
2023-01-30T07:36:12.006Z,87.72
2023-01-30T07:41:14.805Z,87.45
2023-01-30T07:46:17.744Z,87.13
2023-01-30T07:51:21.919Z,86.46
2023-01-30T07:56:24.746Z,87.32
2023-01-30T08:01:27.591Z,84.79
2023-01-30T08:06:32.214Z,83.69
2023-01-30T08:11:35.396Z,80.31
2023-01-30T08:16:39.040Z,78.86
2023-01-30T08:21:43.249Z,77.23
2023-01-30T08:26:46.059Z,78.16
2023-01-30T08:31:48.985Z,77.89
2023-01-30T08:36:53.392Z,77.53
2023-01-30T08:41:56.167Z,78.51
2023-01-30T08:46:58.951Z,77.65
2023-01-30T08:52:03.106Z,77.26
2023-01-30T08:57:45.269Z,76.65
2023-01-30T09:02:48.086Z,75.52
2023-01-30T09:07:52.440Z,75.24
2023-01-30T09:12:55.140Z,74.92
2023-01-30T09:17:57.890Z,73.43
2023-01-30T09:23:02.531Z,74.56
2023-01-30T09:28:05.539Z,72.56
2023-01-30T09:33:08.294Z,73.46
2023-01-30T09:38:12.422Z,72.35
2023-01-30T09:43:30.130Z,71.52
2023-01-30T09:48:42.247Z,71.76
2023-01-30T09:54:04.776Z,72.08
2023-01-30T09:59:08.185Z,72.86
2023-01-30T10:04:19.672Z,72.72
2023-01-30T10:09:34.303Z,73.10
2023-01-30T10:14:56.649Z,72.18
2023-01-30T10:20:12.825Z,72.05
2023-01-30T10:25:27.738Z,74.24
2023-01-30T10:30:30.954Z,77.54
2023-01-30T10:35:37.788Z,77.24
2023-01-30T10:40:45.807Z,76.99
2023-01-30T10:45:56.981Z,77.63
2023-01-30T10:51:05.884Z,80.09
2023-01-30T10:56:19.719Z,80.22
2023-01-30T11:01:26.074Z,79.71
2023-01-30T11:06:29.130Z,78.03
2023-01-30T11:11:43.777Z,74.58
2023-01-30T11:16:49.160Z,72.57
2023-01-30T11:21:54.542Z,70.63
2023-01-30T11:27:12.525Z,70.06
2023-01-30T11:32:24.284Z,70.92
2023-01-30T11:37:33.071Z,69.07
2023-01-30T11:42:37.395Z,67.75
2023-01-30T11:47:56.652Z,66.15
2023-01-30T11:53:04.205Z,69.28
2023-01-30T11:58:10.621Z,69.19
2023-01-30T12:03:17.380Z,70.01
2023-01-30T12:08:40.529Z,68.72
2023-01-30T12:13:47.181Z,68.09
2023-01-30T12:18:57.305Z,65.38
2023-01-30T12:24:10.590Z,62.45
2023-01-30T12:29:24.910Z,67.37
2023-01-30T12:34:27.839Z,72.00
2023-01-30T12:39:42.406Z,92.17
2023-01-30T12:45:02.726Z,93.39
2023-01-30T12:50:25.052Z,89.01
2023-01-30T12:55:37.657Z,89.94
2023-01-30T13:00:54.568Z,91.02
2023-01-30T13:06:10.011Z,83.89
2023-01-30T13:11:29.163Z,79.28
2023-01-30T13:16:44.023Z,80.04
2023-01-30T13:21:55.472Z,78.85
2023-01-30T13:27:03.642Z,76.79
2023-01-30T13:32:15.857Z,75.83
2023-01-30T13:37:20.579Z,76.59
2023-01-30T13:42:32.103Z,76.20
2023-01-30T13:47:47.147Z,75.75
2023-01-30T13:52:57.507Z,73.35
2023-01-30T13:58:11.563Z,71.41
2023-01-30T14:03:31.792Z,69.66
2023-01-30T14:08:39.923Z,70.66
2023-01-30T14:13:53.612Z,69.89
2023-01-30T14:18:57.793Z,69.13
2023-01-30T14:24:02.574Z,70.97
2023-01-30T14:29:05.353Z,71.59
2023-01-30T14:34:47.255Z,72.28
2023-01-30T14:39:55.472Z,71.97
2023-01-30T14:45:06.477Z,71.34
2023-01-30T14:50:19.912Z,72.24
2023-01-30T14:55:29.389Z,71.02
2023-01-30T15:00:36.024Z,71.53
2023-01-30T15:05:44.773Z,71.79
2023-01-30T15:11:04.517Z,70.35
2023-01-30T15:16:17.304Z,70.58
2023-01-30T15:21:37.420Z,69.78
2023-01-30T15:26:52.346Z,70.02
2023-01-30T15:31:56.354Z,69.27
2023-01-30T15:36:59.602Z,69.57
2023-01-30T15:42:08.840Z,69.38
2023-01-30T15:47:23.239Z,69.48
2023-01-30T15:52:36.059Z,69.64
2023-01-30T15:57:41.296Z,69.19
2023-01-30T16:02:44.453Z,69.71
2023-01-30T16:07:49.112Z,69.89
2023-01-30T16:12:56.162Z,70.50
2023-01-30T16:18:05.554Z,69.36
2023-01-30T16:23:21.610Z,69.11
2023-01-30T16:28:28.129Z,69.14
2023-01-30T16:33:36.397Z,68.63
2023-01-30T16:38:44.270Z,69.53
2023-01-30T16:43:48.509Z,70.16
2023-01-30T16:48:52.077Z,70.39
2023-01-30T16:54:00.119Z,69.92
2023-01-30T16:59:05.189Z,70.51
2023-01-30T17:04:18.878Z,70.19
2023-01-30T17:09:51.868Z,71.07
2023-01-30T17:15:27.239Z,71.13
2023-01-30T17:20:38.987Z,69.12
2023-01-30T17:25:44.452Z,68.95
2023-01-30T17:30:49.104Z,70.23
2023-01-30T17:35:51.952Z,69.65
2023-01-30T17:40:54.695Z,69.67
2023-01-30T17:45:58.815Z,69.74
2023-01-30T17:51:01.617Z,70.42
2023-01-30T17:56:04.647Z,68.59
2023-01-30T18:01:08.758Z,69.50
2023-01-30T18:06:13.801Z,71.50
2023-01-30T18:11:17.275Z,70.36
2023-01-30T18:16:26.020Z,72.01
2023-01-30T18:21:28.862Z,72.88
2023-01-30T18:26:31.962Z,72.27
2023-01-30T18:31:36.440Z,73.35
2023-01-30T18:36:39.610Z,72.87
2023-01-30T18:41:42.427Z,72.81
2023-01-30T18:46:46.663Z,74.13
2023-01-30T18:51:49.515Z,73.64
2023-01-30T18:56:52.331Z,74.58
2023-01-30T19:01:56.494Z,76.34
2023-01-30T19:06:59.288Z,76.44
2023-01-30T19:12:15.917Z,76.07
2023-01-30T19:17:20.091Z,76.54
2023-01-30T19:22:22.939Z,75.05
2023-01-30T19:27:25.982Z,75.24
2023-01-30T19:32:30.202Z,74.83
2023-01-30T19:37:33.003Z,75.42
2023-01-30T19:42:37.468Z,74.80
2023-01-30T19:47:42.859Z,73.53
2023-01-30T19:52:45.729Z,72.81
2023-01-30T19:57:48.540Z,73.66
2023-01-30T20:02:53.296Z,74.39
2023-01-30T20:07:56.077Z,73.91
2023-01-30T20:12:58.959Z,73.35
2023-01-30T20:18:03.104Z,73.38
2023-01-30T20:23:05.865Z,74.08
2023-01-30T20:28:09.567Z,73.79
2023-01-30T20:33:13.733Z,74.19
2023-01-30T20:38:16.600Z,73.88
2023-01-30T20:43:19.450Z,73.03
2023-01-30T20:48:23.631Z,71.54
2023-01-30T20:53:26.769Z,72.56
2023-01-30T20:58:30.669Z,71.97
2023-01-30T21:03:35.158Z,73.88
2023-01-30T21:08:39.398Z,74.23
2023-01-30T21:13:42.683Z,75.51
2023-01-30T21:18:49.921Z,74.26
2023-01-30T21:23:54.887Z,74.46
2023-01-30T21:28:58.981Z,74.75
2023-01-30T21:34:03.740Z,74.24
2023-01-30T21:39:24.000Z,74.38
2023-01-30T21:44:28.632Z,73.91
2023-01-30T21:49:33.635Z,75.71
2023-01-30T21:54:36.562Z,75.76
2023-01-30T21:59:39.359Z,74.70
2023-01-30T22:04:43.844Z,74.52
2023-01-30T22:09:48.693Z,74.75
2023-01-30T22:14:51.536Z,75.37
2023-01-30T22:19:55.697Z,75.77
2023-01-30T22:24:59.593Z,75.79
2023-01-30T22:30:02.359Z,76.15
2023-01-30T22:35:07.402Z,76.46
2023-01-30T22:40:11.491Z,76.87
2023-01-30T22:45:14.352Z,76.45
2023-01-30T22:50:18.904Z,76.60
2023-01-30T22:55:22.017Z,77.46
2023-01-30T23:00:25.121Z,77.60
2023-01-30T23:05:29.201Z,77.64
2023-01-30T23:10:31.990Z,82.42
2023-01-30T23:15:36.805Z,81.74
2023-01-30T23:20:40.901Z,82.01
2023-01-30T23:25:43.801Z,82.30
2023-01-30T23:30:46.639Z,82.21
2023-01-30T23:35:50.812Z,82.04
2023-01-30T23:40:53.704Z,80.66
2023-01-30T23:45:57.909Z,81.40
2023-01-30T23:51:03.249Z,79.94
2023-01-30T23:56:07.689Z,80.94
